createdAt,value
2018-07-17T00:02:28.474Z,10.20
2018-07-17T00:04:57.351Z,11.12
2018-07-17T00:07:26.433Z,9.85
2018-07-17T00:09:55.497Z,11.25
2018-07-17T00:12:24.949Z,9.95
2018-07-17T00:14:53.952Z,11.45
2018-07-17T00:17:22.980Z,11.53
2018-07-17T00:19:52.050Z,13.00
2018-07-17T00:22:21.024Z,9.05
2018-07-17T00:24:50.060Z,10.13
2018-07-17T00:27:19.085Z,10.75
2018-07-17T00:29:48.758Z,11.97
2018-07-17T00:32:17.551Z,12.82
2018-07-17T00:34:47.237Z,11.88
2018-07-17T00:37:16.228Z,12.65
2018-07-17T00:39:45.267Z,11.48
2018-07-17T00:42:14.320Z,14.53
2018-07-17T00:44:43.340Z,12.87
2018-07-17T00:47:12.539Z,13.88
2018-07-17T00:49:41.543Z,12.37
2018-07-17T00:52:10.504Z,13.07
2018-07-17T00:54:39.479Z,12.30
2018-07-17T00:57:08.448Z,12.15
2018-07-17T00:59:37.455Z,13.00
2018-07-17T01:02:11.915Z,13.13
2018-07-17T01:04:46.537Z,13.22
2018-07-17T01:07:21.076Z,12.93
2018-07-17T01:09:55.618Z,11.73
2018-07-17T01:12:24.153Z,12.25
2018-07-17T01:14:57.927Z,11.05
2018-07-17T01:17:27.548Z,14.28
2018-07-17T01:19:56.583Z,11.55
2018-07-17T01:22:25.823Z,13.33
2018-07-17T01:24:54.943Z,12.35
2018-07-17T01:27:23.950Z,13.75
2018-07-17T01:29:52.923Z,13.40
2018-07-17T01:32:21.908Z,12.53
2018-07-17T01:34:50.939Z,13.78
2018-07-17T01:37:19.964Z,12.35
2018-07-17T01:39:48.707Z,13.32
2018-07-17T01:42:17.619Z,11.53
2018-07-17T01:44:46.727Z,14.45
2018-07-17T01:47:15.700Z,11.68
2018-07-17T01:49:44.748Z,14.23
2018-07-17T01:52:13.746Z,12.37
2018-07-17T01:54:42.847Z,12.55
2018-07-17T01:57:11.836Z,12.95
2018-07-17T01:59:41.098Z,13.50
2018-07-17T02:02:10.135Z,13.60
2018-07-17T02:04:39.160Z,11.78
2018-07-17T02:07:08.351Z,11.78
2018-07-17T02:09:37.330Z,11.18
2018-07-17T02:12:06.419Z,12.85
2018-07-17T02:14:35.404Z,11.38
2018-07-17T02:17:04.628Z,13.20
2018-07-17T02:19:33.455Z,11.63
2018-07-17T02:22:02.368Z,10.93
2018-07-17T02:24:31.390Z,12.37
2018-07-17T02:27:00.584Z,12.10
2018-07-17T02:29:30.491Z,12.25
2018-07-17T02:31:59.452Z,13.62
2018-07-17T02:34:28.284Z,12.70
2018-07-17T02:36:57.148Z,13.60
2018-07-17T02:39:26.116Z,13.72
2018-07-17T02:41:54.895Z,13.43
2018-07-17T02:44:23.799Z,10.48
2018-07-17T02:46:53.679Z,13.47
2018-07-17T02:49:22.723Z,12.78
2018-07-17T02:51:51.713Z,12.90
2018-07-17T02:54:20.774Z,13.83
2018-07-17T02:56:50.724Z,13.98
2018-07-17T02:59:19.983Z,11.88
2018-07-17T03:01:48.806Z,13.60
2018-07-17T03:04:17.666Z,13.07
2018-07-17T03:06:46.647Z,13.08
2018-07-17T03:09:15.664Z,14.03
2018-07-17T03:11:44.687Z,11.90
2018-07-17T03:14:13.701Z,14.38
2018-07-17T03:16:42.623Z,12.85
2018-07-17T03:19:11.253Z,12.80
2018-07-17T03:21:40.456Z,11.18
2018-07-17T03:24:09.889Z,12.23
2018-07-17T03:26:38.976Z,11.90
2018-07-17T03:29:08.210Z,13.50
2018-07-17T03:31:37.019Z,13.57
2018-07-17T03:34:05.917Z,12.85
2018-07-17T03:36:34.955Z,13.35
2018-07-17T03:39:04.956Z,11.10
2018-07-17T03:41:34.001Z,13.72
2018-07-17T03:44:03.020Z,13.80
2018-07-17T03:46:32.030Z,14.68
2018-07-17T03:49:01.064Z,14.98
2018-07-17T03:51:30.414Z,13.77
2018-07-17T03:53:59.348Z,14.20
2018-07-17T03:56:28.331Z,13.57
2018-07-17T03:58:57.312Z,14.65
2018-07-17T04:01:26.828Z,15.30
2018-07-17T04:03:55.818Z,15.05
2018-07-17T04:06:24.765Z,13.87
2018-07-17T04:08:53.784Z,15.88
2018-07-17T04:11:22.790Z,15.48
2018-07-17T04:13:51.775Z,15.87
2018-07-17T04:16:20.779Z,14.38
2018-07-17T04:18:49.744Z,13.50
2018-07-17T04:21:18.777Z,13.73
2018-07-17T04:23:47.826Z,15.17
2018-07-17T04:26:16.651Z,14.53
2018-07-17T04:28:45.319Z,14.07
2018-07-17T04:31:14.231Z,13.10
2018-07-17T04:33:43.259Z,12.75
2018-07-17T04:36:12.388Z,14.30
2018-07-17T04:38:41.364Z,13.35
2018-07-17T04:41:10.351Z,14.43
2018-07-17T04:43:39.350Z,14.28
2018-07-17T04:46:08.308Z,15.53
2018-07-17T04:48:37.402Z,15.55
2018-07-17T04:51:06.379Z,14.80
2018-07-17T04:53:35.299Z,13.08
2018-07-17T04:56:04.463Z,11.63
2018-07-17T04:58:33.662Z,11.90
2018-07-17T05:01:02.479Z,11.53
2018-07-17T05:03:31.453Z,11.55
2018-07-17T05:06:00.526Z,11.65
2018-07-17T05:08:29.679Z,10.48
2018-07-17T05:10:58.514Z,11.87
2018-07-17T05:13:27.485Z,9.70
2018-07-17T05:15:56.501Z,11.35
2018-07-17T05:18:25.516Z,12.07
2018-07-17T05:20:54.518Z,11.68
2018-07-17T05:23:23.599Z,11.23
2018-07-17T05:25:52.655Z,10.90
2018-07-17T05:28:21.647Z,11.90
2018-07-17T05:30:50.694Z,10.08
2018-07-17T05:33:19.489Z,11.63
2018-07-17T05:35:48.415Z,11.08
2018-07-17T05:38:17.423Z,11.80
2018-07-17T05:40:46.415Z,11.30
2018-07-17T05:43:15.472Z,11.78
2018-07-17T05:45:44.439Z,11.03
2018-07-17T05:48:14.043Z,10.70
2018-07-17T05:50:43.036Z,9.90
2018-07-17T05:53:11.816Z,9.95
2018-07-17T05:55:40.695Z,9.88
2018-07-17T05:58:09.793Z,9.35
2018-07-17T06:00:38.919Z,9.63
2018-07-17T06:03:08.352Z,9.00
2018-07-17T06:05:37.147Z,10.30
2018-07-17T06:08:06.452Z,8.98
2018-07-17T06:10:35.443Z,8.85
2018-07-17T06:13:04.437Z,8.20
2018-07-17T06:15:33.467Z,7.90
2018-07-17T06:18:03.129Z,36.75
2018-07-17T06:20:32.183Z,10.53
2018-07-17T06:23:01.197Z,7.30
2018-07-17T06:25:30.285Z,6.47
2018-07-17T06:28:00.403Z,6.17
2018-07-17T06:30:29.567Z,8.28
2018-07-17T06:32:58.768Z,7.67
2018-07-17T06:35:27.776Z,5.85
2018-07-17T06:37:56.846Z,8.70
2018-07-17T06:40:25.917Z,5.92
2018-07-17T06:42:54.920Z,6.08
2018-07-17T06:45:23.960Z,5.80
2018-07-17T06:47:53.097Z,15.53
2018-07-17T06:50:22.372Z,6.60
2018-07-17T06:52:51.249Z,6.87
2018-07-17T06:55:20.785Z,6.72
2018-07-17T06:57:49.857Z,5.33
2018-07-17T07:00:18.892Z,16.85
2018-07-17T07:02:47.955Z,7.70
2018-07-17T07:05:16.951Z,6.58
2018-07-17T07:07:46.095Z,5.70
2018-07-17T07:10:15.116Z,5.30
2018-07-17T07:12:44.071Z,6.10
2018-07-17T07:15:13.052Z,5.28
2018-07-17T07:17:42.044Z,6.05
2018-07-17T07:20:11.004Z,5.42
2018-07-17T07:22:40.040Z,7.15
2018-07-17T07:25:08.822Z,5.12
2018-07-17T07:27:37.763Z,5.87
2018-07-17T07:30:07.275Z,6.65
2018-07-17T07:32:37.211Z,5.10
2018-07-17T07:35:06.298Z,5.12
2018-07-17T07:37:35.480Z,4.97
2018-07-17T07:40:04.643Z,6.12
2018-07-17T07:42:34.259Z,4.47
2018-07-17T07:45:03.382Z,6.28
2018-07-17T07:47:32.367Z,4.08
2018-07-17T07:50:01.452Z,5.30
2018-07-17T07:52:30.780Z,5.62
2018-07-17T07:55:00.027Z,7.97
2018-07-17T07:57:29.075Z,6.25
2018-07-17T07:59:58.148Z,4.90
2018-07-17T08:02:26.994Z,6.78
2018-07-17T08:04:55.932Z,5.80
2018-07-17T08:07:25.001Z,6.17
2018-07-17T08:09:53.992Z,5.28
2018-07-17T08:12:23.034Z,7.75
2018-07-17T08:14:52.070Z,5.33
2018-07-17T08:17:21.060Z,6.30
2018-07-17T08:19:50.147Z,9.33
2018-07-17T08:22:19.221Z,34.45
2018-07-17T08:24:48.363Z,7.55
2018-07-17T08:27:17.448Z,5.35
2018-07-17T08:29:46.447Z,6.08
2018-07-17T08:32:15.458Z,5.58
2018-07-17T08:34:44.538Z,5.07
2018-07-17T08:37:13.516Z,5.25
2018-07-17T08:39:42.247Z,7.30
2018-07-17T08:42:11.139Z,5.50
2018-07-17T08:44:40.127Z,6.17
2018-07-17T08:47:09.175Z,6.50
2018-07-17T08:49:38.275Z,12.90
2018-07-17T08:52:07.375Z,8.67
2018-07-17T08:54:36.540Z,5.55
2018-07-17T08:57:05.515Z,7.17
2018-07-17T08:59:34.527Z,7.27
2018-07-17T09:02:03.487Z,6.07
2018-07-17T09:04:32.515Z,5.47
2018-07-17T09:07:01.777Z,6.50
2018-07-17T09:09:31.564Z,5.80
2018-07-17T09:12:00.614Z,7.60
2018-07-17T09:14:30.036Z,5.60
2018-07-17T09:16:59.361Z,6.15
2018-07-17T09:19:28.660Z,6.10
2018-07-17T09:21:57.762Z,6.25
2018-07-17T09:24:26.956Z,6.67
2018-07-17T09:26:55.980Z,7.13
2018-07-17T09:29:24.955Z,5.90
2018-07-17T09:31:53.934Z,6.00
2018-07-17T09:34:22.916Z,5.80
2018-07-17T09:36:51.918Z,6.28
2018-07-17T09:39:20.915Z,4.95
2018-07-17T09:41:49.884Z,8.65
2018-07-17T09:44:19.079Z,5.00
2018-07-17T09:46:48.093Z,6.00
2018-07-17T09:49:17.219Z,5.42
2018-07-17T09:51:46.255Z,6.12
2018-07-17T09:54:15.135Z,5.20
2018-07-17T09:56:44.018Z,6.03
2018-07-17T09:59:12.984Z,6.78
2018-07-17T10:01:47.463Z,4.92
2018-07-17T10:04:16.456Z,4.90
2018-07-17T10:06:45.489Z,5.23
2018-07-17T10:09:14.467Z,5.47
2018-07-17T10:11:43.287Z,5.85
2018-07-17T10:14:12.146Z,5.53
2018-07-17T10:16:41.132Z,6.50
2018-07-17T10:19:10.059Z,5.30
2018-07-17T10:21:39.030Z,4.22
2018-07-17T10:24:08.067Z,4.70
2018-07-17T10:26:37.215Z,4.65
2018-07-17T10:29:07.043Z,5.75
2018-07-17T10:31:35.785Z,6.28
2018-07-17T10:34:04.676Z,3.95
2018-07-17T10:36:33.712Z,4.90
2018-07-17T10:39:02.974Z,3.95
2018-07-17T10:41:32.104Z,4.70
2018-07-17T10:44:01.171Z,4.17
2018-07-17T10:46:30.008Z,5.08
2018-07-17T10:48:58.960Z,4.28
2018-07-17T10:51:28.006Z,4.67
2018-07-17T10:53:57.112Z,4.50
2018-07-17T10:56:26.936Z,4.10
2018-07-17T10:58:56.037Z,5.20
2018-07-17T11:01:25.114Z,4.45
2018-07-17T11:03:53.854Z,5.30
2018-07-17T11:06:22.694Z,4.92
2018-07-17T11:08:51.740Z,5.35
2018-07-17T11:11:20.772Z,6.57
2018-07-17T11:13:49.990Z,4.47
2018-07-17T11:16:19.945Z,5.12
2018-07-17T11:18:49.039Z,4.97
2018-07-17T11:21:18.035Z,6.40
2018-07-17T11:23:47.046Z,6.65
2018-07-17T11:26:16.945Z,5.47
2018-07-17T11:28:45.995Z,4.45
2018-07-17T11:31:14.963Z,5.53
2018-07-17T11:33:43.918Z,4.90
2018-07-17T11:36:12.927Z,5.62
2018-07-17T11:38:41.930Z,4.72
2018-07-17T11:41:10.891Z,5.45
2018-07-17T11:43:39.920Z,4.70
2018-07-17T11:46:08.891Z,5.12
2018-07-17T11:48:37.861Z,4.40
2018-07-17T11:51:07.056Z,3.87
2018-07-17T11:53:36.135Z,4.83
2018-07-17T11:56:04.891Z,4.08
2018-07-17T11:58:33.883Z,4.70
2018-07-17T12:01:02.905Z,4.37
2018-07-17T12:03:32.040Z,4.42
2018-07-17T12:06:00.835Z,5.35
2018-07-17T12:08:29.940Z,4.25
2018-07-17T12:10:59.092Z,4.65
2018-07-17T12:13:28.172Z,6.28
2018-07-17T12:15:57.416Z,4.72
2018-07-17T12:18:26.723Z,3.27
2018-07-17T12:20:56.787Z,4.67
2018-07-17T12:23:25.687Z,3.52
2018-07-17T12:25:54.595Z,4.55
2018-07-17T12:28:23.360Z,4.05
2018-07-17T12:30:52.310Z,4.40
2018-07-17T12:33:21.351Z,4.58
2018-07-17T12:35:50.363Z,4.78
2018-07-17T12:38:19.387Z,4.42
2018-07-17T12:40:48.437Z,4.12
2018-07-17T12:43:17.393Z,4.80
2018-07-17T12:45:46.408Z,5.03
2018-07-17T12:48:15.226Z,5.33
2018-07-17T12:50:44.857Z,4.20
2018-07-17T12:53:13.789Z,3.77
2018-07-17T12:55:42.997Z,4.20
2018-07-17T12:58:12.207Z,3.83
2018-07-17T13:00:41.866Z,4.67
2018-07-17T13:03:10.688Z,3.85
2018-07-17T13:05:39.558Z,4.55
2018-07-17T13:08:09.260Z,3.75
2018-07-17T13:10:38.826Z,4.78
2018-07-17T13:13:07.838Z,4.20
2018-07-17T13:15:36.811Z,4.08
2018-07-17T13:18:05.892Z,4.20
2018-07-17T13:20:34.940Z,3.87
2018-07-17T13:23:03.923Z,4.40
2018-07-17T13:25:32.680Z,4.10
2018-07-17T13:28:01.652Z,4.17
2018-07-17T13:30:30.702Z,5.30
2018-07-17T13:32:59.739Z,5.90
2018-07-17T13:35:28.792Z,5.22
2018-07-17T13:37:57.864Z,4.37
2018-07-17T13:40:26.950Z,3.70
2018-07-17T13:42:55.979Z,6.33
2018-07-17T13:45:25.016Z,4.75
2018-07-17T13:47:54.047Z,3.35
2018-07-17T13:50:22.906Z,4.83
2018-07-17T13:52:51.876Z,5.75
2018-07-17T13:55:20.855Z,5.47
2018-07-17T13:57:49.704Z,3.75
2018-07-17T14:00:18.551Z,5.80
2018-07-17T14:02:47.326Z,4.53
2018-07-17T14:05:16.367Z,4.28
2018-07-17T14:07:45.347Z,4.85
2018-07-17T14:10:14.967Z,3.97
2018-07-17T14:12:43.838Z,4.15
2018-07-17T14:15:12.755Z,3.85
2018-07-17T14:17:41.763Z,4.47
2018-07-17T14:20:10.742Z,4.95
2018-07-17T14:22:39.735Z,6.08
2018-07-17T14:25:08.694Z,9.53
2018-07-17T14:27:37.731Z,3.47
2018-07-17T14:30:06.820Z,6.25
2018-07-17T14:32:35.716Z,3.72
2018-07-17T14:35:05.388Z,3.67
2018-07-17T14:37:34.359Z,4.00
2018-07-17T14:40:03.483Z,5.05
2018-07-17T14:42:32.548Z,5.65
2018-07-17T14:45:01.519Z,7.00
2018-07-17T14:47:30.576Z,4.03
2018-07-17T14:49:59.652Z,3.33
2018-07-17T14:52:28.804Z,4.42
2018-07-17T14:54:57.812Z,3.33
2018-07-17T14:57:27.019Z,4.10
2018-07-17T14:59:56.536Z,3.10
2018-07-17T15:02:25.619Z,3.67
2018-07-17T15:04:54.610Z,3.85
2018-07-17T15:07:23.980Z,3.77
2018-07-17T15:09:53.012Z,3.70
2018-07-17T15:12:21.951Z,4.55
2018-07-17T15:14:51.062Z,3.92
2018-07-17T15:17:20.191Z,4.33
2018-07-17T15:19:49.168Z,3.27
2018-07-17T15:22:18.191Z,2.75
2018-07-17T15:24:47.212Z,3.02
2018-07-17T15:27:16.167Z,3.22
2018-07-17T15:29:45.668Z,3.12
2018-07-17T15:32:14.743Z,3.30
2018-07-17T15:34:43.760Z,4.25
2018-07-17T15:37:12.720Z,2.35
2018-07-17T15:39:41.772Z,4.00
2018-07-17T15:42:10.764Z,2.62
2018-07-17T15:44:39.754Z,2.17
2018-07-17T15:47:08.765Z,3.40
2018-07-17T15:49:37.811Z,3.42
2018-07-17T15:52:06.822Z,3.10
2018-07-17T15:54:36.912Z,3.17
2018-07-17T15:57:05.924Z,4.45
2018-07-17T15:59:34.958Z,3.65
2018-07-17T16:02:03.984Z,3.00
2018-07-17T16:04:32.968Z,3.90
2018-07-17T16:07:02.022Z,3.98
2018-07-17T16:09:31.071Z,3.30
2018-07-17T16:12:00.203Z,3.53
2018-07-17T16:14:29.197Z,3.75
2018-07-17T16:16:58.092Z,3.25
2018-07-17T16:19:27.598Z,3.70
2018-07-17T16:21:57.501Z,3.00
2018-07-17T16:24:26.814Z,3.85
2018-07-17T16:26:55.966Z,2.72
2018-07-17T16:29:25.040Z,3.00
2018-07-17T16:31:54.387Z,2.75
2018-07-17T16:34:23.405Z,2.72
2018-07-17T16:36:52.415Z,3.20
2018-07-17T16:39:21.494Z,2.37
2018-07-17T16:41:50.456Z,3.12
2018-07-17T16:44:19.238Z,3.25
2018-07-17T16:46:48.219Z,3.25
2018-07-17T16:49:17.276Z,2.10
2018-07-17T16:51:46.468Z,7.55
2018-07-17T16:54:15.429Z,2.15
2018-07-17T16:56:44.359Z,3.15
2018-07-17T16:59:13.815Z,2.75
2018-07-17T17:01:42.873Z,2.95
2018-07-17T17:04:11.968Z,3.47
2018-07-17T17:06:41.020Z,2.67
2018-07-17T17:09:11.471Z,3.30
2018-07-17T17:11:40.975Z,2.47
2018-07-17T17:14:10.315Z,4.30
2018-07-17T17:16:39.656Z,2.85
2018-07-17T17:19:08.840Z,3.25
2018-07-17T17:21:38.027Z,2.98
2018-07-17T17:24:07.047Z,4.00
2018-07-17T17:26:36.154Z,4.67
2018-07-17T17:29:05.284Z,2.72
2018-07-17T17:31:34.235Z,3.83
2018-07-17T17:34:03.282Z,2.13
2018-07-17T17:36:32.469Z,3.10
2018-07-17T17:39:01.378Z,2.62
2018-07-17T17:41:30.448Z,3.10
2018-07-17T17:43:59.499Z,2.65
2018-07-17T17:46:28.352Z,3.30
2018-07-17T17:48:57.210Z,3.12
2018-07-17T17:51:26.219Z,3.40
2018-07-17T17:53:55.233Z,3.42
2018-07-17T17:56:24.252Z,2.67
2018-07-17T17:58:53.240Z,3.15
2018-07-17T18:01:22.280Z,3.67
2018-07-17T18:03:51.270Z,4.25
2018-07-17T18:06:20.300Z,2.92
2018-07-17T18:08:49.082Z,3.35
2018-07-17T18:11:17.980Z,3.27
2018-07-17T18:13:46.983Z,5.75
2018-07-17T18:16:15.998Z,5.03
2018-07-17T18:18:45.095Z,3.33
2018-07-17T18:21:14.134Z,4.18
2018-07-17T18:23:43.212Z,2.92
2018-07-17T18:26:12.269Z,4.27
2018-07-17T18:28:41.151Z,2.70
2018-07-17T18:31:10.087Z,4.28
2018-07-17T18:33:39.172Z,3.30
2018-07-17T18:36:08.292Z,3.72
2018-07-17T18:38:37.365Z,9.83
2018-07-17T18:41:06.439Z,13.68
2018-07-17T18:43:35.618Z,16.87
2018-07-17T18:46:04.984Z,17.27
2018-07-17T18:48:34.105Z,19.05
2018-07-17T18:51:03.113Z,19.62
2018-07-17T18:53:33.051Z,21.30
2018-07-17T18:56:02.067Z,21.90
2018-07-17T18:58:31.137Z,24.05
2018-07-17T19:01:00.144Z,19.67
2018-07-17T19:03:29.184Z,16.75
2018-07-17T19:05:58.275Z,17.17
2018-07-17T19:08:27.556Z,14.85
2018-07-17T19:10:56.654Z,16.75
2018-07-17T19:13:25.699Z,17.07
2018-07-17T19:15:54.906Z,15.48
2018-07-17T19:18:23.949Z,14.80
2018-07-17T19:20:53.013Z,15.40
2018-07-17T19:23:22.161Z,15.53
2018-07-17T19:25:52.192Z,16.87
2018-07-17T19:28:21.281Z,15.78
2018-07-17T19:30:50.161Z,15.37
2018-07-17T19:33:19.197Z,16.90
2018-07-17T19:35:48.405Z,14.57
2018-07-17T19:38:17.399Z,16.20
2018-07-17T19:40:46.602Z,13.87
2018-07-17T19:43:15.399Z,15.88
2018-07-17T19:45:44.063Z,13.40
2018-07-17T19:48:13.019Z,13.00
2018-07-17T19:50:42.138Z,13.20
2018-07-17T19:53:11.934Z,12.95
2018-07-17T19:55:41.039Z,14.87
2018-07-17T19:58:10.116Z,12.63
2018-07-17T20:00:39.173Z,13.20
2018-07-17T20:03:08.943Z,13.78
2018-07-17T20:05:38.132Z,13.75
2018-07-17T20:08:07.583Z,12.50
2018-07-17T20:10:36.681Z,13.40
2018-07-17T20:13:05.614Z,12.82
2018-07-17T20:15:34.636Z,12.73
2018-07-17T20:18:03.846Z,13.35
2018-07-17T20:20:33.469Z,14.13
2018-07-17T20:23:02.763Z,16.30
2018-07-17T20:25:31.935Z,15.43
2018-07-17T20:28:01.060Z,14.90
2018-07-17T20:30:30.111Z,16.70
2018-07-17T20:32:59.281Z,13.50
2018-07-17T20:35:29.440Z,13.18
2018-07-17T20:37:58.489Z,14.60
2018-07-17T20:40:27.514Z,12.13
2018-07-17T20:42:56.678Z,12.23
2018-07-17T20:45:25.540Z,11.65
2018-07-17T20:47:54.452Z,10.20
2018-07-17T20:50:23.502Z,12.55
2018-07-17T20:52:52.609Z,12.50
2018-07-17T20:55:21.585Z,12.82
2018-07-17T20:57:50.600Z,11.00
2018-07-17T21:00:19.403Z,13.95
2018-07-17T21:02:48.331Z,12.10
2018-07-17T21:05:17.375Z,13.48
2018-07-17T21:07:46.371Z,13.18
2018-07-17T21:10:15.408Z,13.10
2018-07-17T21:12:44.247Z,15.80
2018-07-17T21:15:13.092Z,11.73
2018-07-17T21:17:42.153Z,14.15
2018-07-17T21:20:11.271Z,13.28
2018-07-17T21:22:40.314Z,13.00
2018-07-17T21:25:09.311Z,12.88
2018-07-17T21:27:38.312Z,11.60
2018-07-17T21:30:07.335Z,12.93
2018-07-17T21:32:36.104Z,11.78
2018-07-17T21:35:05.023Z,12.50
2018-07-17T21:37:34.588Z,10.75
2018-07-17T21:40:03.686Z,12.40
2018-07-17T21:42:32.730Z,9.95
2018-07-17T21:45:01.785Z,12.90
2018-07-17T21:47:30.982Z,11.43
2018-07-17T21:50:00.108Z,11.83
2018-07-17T21:52:29.806Z,11.97
2018-07-17T21:54:58.589Z,13.32
2018-07-17T21:57:27.479Z,12.58
2018-07-17T21:59:56.495Z,13.45
2018-07-17T22:02:25.796Z,16.73
2018-07-17T22:04:54.771Z,15.45
2018-07-17T22:07:23.939Z,13.50
2018-07-17T22:09:52.947Z,15.70
2018-07-17T22:12:22.684Z,13.50
2018-07-17T22:14:51.680Z,14.78
2018-07-17T22:17:20.720Z,15.48
2018-07-17T22:19:49.686Z,17.70
2018-07-17T22:22:18.713Z,14.07
2018-07-17T22:24:47.742Z,15.38
2018-07-17T22:27:16.789Z,13.72
2018-07-17T22:29:45.780Z,13.40
2018-07-17T22:32:14.535Z,15.63
2018-07-17T22:34:43.404Z,14.70
2018-07-17T22:37:12.473Z,14.13
2018-07-17T22:39:41.396Z,14.30
2018-07-17T22:42:10.391Z,14.98
2018-07-17T22:44:39.378Z,14.95
2018-07-17T22:47:08.919Z,16.90
2018-07-17T22:49:37.934Z,19.07
2018-07-17T22:52:07.156Z,19.40
2018-07-17T22:54:36.161Z,17.92
2018-07-17T22:57:05.230Z,18.73
2018-07-17T22:59:34.425Z,21.42
2018-07-17T23:02:03.332Z,17.80
2018-07-17T23:04:32.200Z,18.23
2018-07-17T23:07:01.193Z,19.07
2018-07-17T23:09:30.230Z,21.80
2018-07-17T23:11:59.114Z,19.20
2018-07-17T23:14:27.935Z,18.27
2018-07-17T23:16:56.910Z,18.67
2018-07-17T23:19:26.033Z,19.65
2018-07-17T23:21:54.791Z,22.25
2018-07-17T23:24:23.632Z,16.82
2018-07-17T23:26:52.410Z,25.55
2018-07-17T23:29:21.315Z,17.52
2018-07-17T23:31:50.270Z,17.48
2018-07-17T23:34:19.267Z,15.38
2018-07-17T23:36:48.275Z,15.72
2018-07-17T23:39:17.227Z,15.72
2018-07-17T23:41:46.005Z,15.32
2018-07-17T23:44:14.891Z,15.63
2018-07-17T23:46:43.874Z,14.23
2018-07-17T23:49:18.235Z,12.50
2018-07-17T23:51:47.195Z,12.93
2018-07-17T23:54:16.167Z,14.23
2018-07-17T23:56:45.028Z,11.90
2018-07-17T23:59:13.912Z,12.18
